Time;durP1;ratioP1;P1;durP2;ratioP2;P2;SDS_P1;SDS_P2;PMS_P1;PMS_P2;Temp;Humidity;BMP_temperature;BMP_pressure;BME280_temperature;BME280_humidity;BME280_pressure;Samples;Min_cycle;Max_cycle;Signal;HPM_P1;HPM_P2
2022/08/19 00:02:04;;;;;;;29.75;28.15;;;;;;;;;;5036452;28;20534;-60
2022/08/19 00:04:32;;;;;;;25.95;24.55;;;;;;;;;;5036335;28;20038;-60
2022/08/19 00:06:59;;;;;;;24.58;23.08;;;;;;;;;;5041547;28;20119;-60
2022/08/19 00:09:25;;;;;;;24.27;22.88;;;;;;;;;;5031549;28;20521;-60
2022/08/19 00:11:51;;;;;;;31.88;30.17;;;;;;;;;;5038541;28;20045;-60
2022/08/19 00:14:17;;;;;;;25.60;24.20;;;;;;;;;;5037633;28;20034;-60
2022/08/19 00:16:45;;;;;;;31.33;29.60;;;;;;;;;;5036951;28;20044;-60
2022/08/19 00:19:11;;;;;;;32.83;31.05;;;;;;;;;;5033203;28;20029;-60
2022/08/19 00:21:39;;;;;;;32.35;30.42;;;;;;;;;;5034090;28;20033;-60
2022/08/19 00:24:08;;;;;;;40.88;38.78;;;;;;;;;;5032769;28;20086;-59
2022/08/19 00:26:34;;;;;;;41.78;39.53;;;;;;;;;;5035522;28;20029;-59
2022/08/19 00:29:00;;;;;;;39.85;37.67;;;;;;;;;;5036344;28;20056;-59
2022/08/19 00:31:27;;;;;;;40.65;38.45;;;;;;;;;;5033315;28;20017;-60
2022/08/19 00:33:53;;;;;;;37.33;35.38;;;;;;;;;;5037419;28;20837;-60
2022/08/19 00:36:19;;;;;;;37.42;34.97;;;;;;;;;;5040561;28;20037;-60
2022/08/19 00:38:44;;;;;;;34.00;32.00;;;;;;;;;;5038229;28;20040;-60
2022/08/19 00:41:13;;;;;;;36.53;34.42;;;;;;;;;;5040298;28;20398;-60
2022/08/19 00:43:38;;;;;;;38.30;36.20;;;;;;;;;;5037337;28;20033;-60
2022/08/19 00:46:04;;;;;;;31.73;30.00;;;;;;;;;;5041023;28;20040;-59
2022/08/19 00:48:31;;;;;;;34.17;32.28;;;;;;;;;;5039125;28;20037;-60
2022/08/19 00:50:57;;;;;;;32.08;30.33;;;;;;;;;;5037626;28;20066;-59
2022/08/19 00:53:27;;;;;;;36.65;34.65;;;;;;;;;;5036823;28;20164;-60
2022/08/19 00:55:54;;;;;;;41.17;39.00;;;;;;;;;;5039615;28;20036;-60
2022/08/19 00:58:24;;;;;;;35.22;32.83;;;;;;;;;;5037502;28;20033;-60
2022/08/19 01:00:49;;;;;;;36.28;34.25;;;;;;;;;;5039035;28;20037;-60
2022/08/19 01:03:18;;;;;;;32.75;30.88;;;;;;;;;;5039329;28;20075;-60
2022/08/19 01:05:45;;;;;;;37.25;35.25;;;;;;;;;;5041052;28;20049;-60
2022/08/19 01:08:13;;;;;;;30.23;28.52;;;;;;;;;;5037857;28;20134;-60
2022/08/19 01:10:49;;;;;;;25.35;23.88;;;;;;;;;;5044737;28;20301;-60
2022/08/19 01:13:18;;;;;;;22.75;21.45;;;;;;;;;;5037658;28;20044;-60
2022/08/19 01:15:57;;;;;;;25.38;23.95;;;;;;;;;;5036185;28;20033;-60
2022/08/19 01:18:24;;;;;;;23.95;22.60;;;;;;;;;;5037768;28;20060;-60
2022/08/19 01:20:51;;;;;;;24.38;22.98;;;;;;;;;;5035901;28;20510;-60
2022/08/19 01:23:16;;;;;;;21.40;20.20;;;;;;;;;;5037151;28;20048;-60
2022/08/19 01:25:49;;;;;;;29.80;28.15;;;;;;;;;;5037461;28;20033;-60
2022/08/19 01:28:28;;;;;;;26.75;25.27;;;;;;;;;;5041039;28;20028;-60
2022/08/19 01:30:54;;;;;;;26.48;24.98;;;;;;;;;;5036822;28;20029;-60
2022/08/19 01:33:20;;;;;;;31.30;29.55;;;;;;;;;;5036506;28;20043;-60
2022/08/19 01:35:51;;;;;;;27.77;26.08;;;;;;;;;;5037917;28;20172;-60
2022/08/19 01:38:24;;;;;;;;;;;;;;;;;;5039392;28;20115;-60
2022/08/19 01:40:50;;;;;;;23.63;22.33;;;;;;;;;;5037110;28;20032;-60
2022/08/19 01:43:15;;;;;;;23.70;22.40;;;;;;;;;;5041487;28;20133;-60
2022/08/19 01:45:41;;;;;;;27.38;25.77;;;;;;;;;;5037539;28;20037;-60
2022/08/19 01:48:07;;;;;;;22.90;21.60;;;;;;;;;;5039864;28;20033;-60
2022/08/19 01:50:34;;;;;;;25.67;24.27;;;;;;;;;;5038858;28;20565;-60
2022/08/19 01:53:03;;;;;;;25.17;23.63;;;;;;;;;;5035619;28;20371;-63
2022/08/19 01:55:29;;;;;;;25.85;24.35;;;;;;;;;;5038353;28;20637;-63
2022/08/19 01:57:59;;;;;;;22.85;21.55;;;;;;;;;;5031745;28;20021;-63
2022/08/19 02:00:29;;;;;;;23.30;22.00;;;;;;;;;;5035180;28;20080;-63
2022/08/19 02:02:54;;;;;;;25.40;24.00;;;;;;;;;;5036593;28;20102;-64
2022/08/19 02:05:21;;;;;;;22.17;20.95;;;;;;;;;;5033743;28;20109;-63
2022/08/19 02:07:47;;;;;;;27.92;26.40;;;;;;;;;;5034370;28;20037;-63
2022/08/19 02:10:16;;;;;;;27.95;26.38;;;;;;;;;;5037073;28;20123;-63
2022/08/19 02:12:42;;;;;;;25.92;24.52;;;;;;;;;;5033680;28;20562;-64
2022/08/19 02:15:08;;;;;;;29.10;27.48;;;;;;;;;;5034247;28;20120;-64
2022/08/19 02:17:34;;;;;;;27.40;25.90;;;;;;;;;;5032471;28;20116;-63
2022/08/19 02:20:00;;;;;;;32.38;30.63;;;;;;;;;;5038457;28;20041;-63
2022/08/19 02:22:25;;;;;;;32.20;30.40;;;;;;;;;;5037599;28;20017;-63
2022/08/19 02:24:55;;;;;;;38.30;36.20;;;;;;;;;;5033620;28;20328;-63
2022/08/19 02:27:21;;;;;;;40.55;38.40;;;;;;;;;;5037431;28;20040;-63
2022/08/19 02:29:48;;;;;;;35.72;33.75;;;;;;;;;;5037875;28;20120;-60
2022/08/19 02:32:14;;;;;;;37.33;35.30;;;;;;;;;;5035921;28;20037;-59
2022/08/19 02:34:40;;;;;;;32.75;30.95;;;;;;;;;;5034759;28;20041;-59
2022/08/19 02:37:05;;;;;;;36.97;34.80;;;;;;;;;;5037100;28;20033;-60
2022/08/19 02:39:31;;;;;;;40.72;38.53;;;;;;;;;;5033807;28;20059;-59
2022/08/19 02:41:59;;;;;;;35.67;33.70;;;;;;;;;;5034548;28;20037;-59
2022/08/19 02:44:24;;;;;;;29.67;28.08;;;;;;;;;;5033419;28;20068;-59
2022/08/19 02:46:50;;;;;;;39.92;37.67;;;;;;;;;;5032399;28;20128;-59
2022/08/19 02:49:16;;;;;;;35.75;33.88;;;;;;;;;;5035824;28;20037;-60
2022/08/19 02:51:44;;;;;;;45.00;42.53;;;;;;;;;;5037695;28;20040;-59
2022/08/19 02:54:12;;;;;;;39.17;37.10;;;;;;;;;;5034914;28;20103;-59
2022/08/19 02:56:40;;;;;;;43.47;41.08;;;;;;;;;;5033651;28;20108;-59
2022/08/19 02:59:09;;;;;;;39.40;37.25;;;;;;;;;;5033880;28;20029;-59
2022/08/19 03:01:35;;;;;;;38.55;36.53;;;;;;;;;;5035764;28;20109;-59
2022/08/19 03:04:04;;;;;;;32.60;30.67;;;;;;;;;;5034544;28;20021;-59
2022/08/19 03:06:31;;;;;;;39.00;36.95;;;;;;;;;;5034334;28;20047;-59
2022/08/19 03:08:56;;;;;;;40.40;38.30;;;;;;;;;;5033834;28;20152;-59
2022/08/19 03:11:29;;;;;;;38.28;36.03;;;;;;;;;;5031684;28;20025;-59
2022/08/19 03:13:55;;;;;;;45.25;42.88;;;;;;;;;;5030655;28;20030;-59
2022/08/19 03:16:23;;;;;;;40.20;37.90;;;;;;;;;;5033424;28;20029;-59
2022/08/19 03:18:49;;;;;;;45.20;42.85;;;;;;;;;;5036553;28;20099;-59
2022/08/19 03:21:20;;;;;;;49.55;46.70;;;;;;;;;;5032584;28;20144;-59
2022/08/19 03:23:46;;;;;;;40.10;37.95;;;;;;;;;;5036438;28;20040;-59
2022/08/19 03:26:12;;;;;;;39.38;37.30;;;;;;;;;;5037754;28;20352;-59
2022/08/19 03:28:37;;;;;;;46.58;43.90;;;;;;;;;;5036831;28;20469;-59
2022/08/19 03:31:09;;;;;;;41.53;39.30;;;;;;;;;;5033727;28;20025;-59
2022/08/19 03:33:35;;;;;;;46.90;44.38;;;;;;;;;;5033885;28;20446;-60
2022/08/19 03:36:00;;;;;;;46.80;44.33;;;;;;;;;;5033746;28;20033;-60
2022/08/19 03:38:26;;;;;;;44.10;41.80;;;;;;;;;;5032549;28;20748;-60
2022/08/19 03:40:51;;;;;;;44.88;42.50;;;;;;;;;;5035764;28;20033;-60
2022/08/19 03:43:17;;;;;;;47.30;44.67;;;;;;;;;;5036038;28;20036;-60
2022/08/19 03:45:42;;;;;;;44.50;42.20;;;;;;;;;;5037151;28;20344;-60
2022/08/19 03:48:08;;;;;;;44.95;42.53;;;;;;;;;;5036934;28;20033;-60
2022/08/19 03:50:38;;;;;;;41.97;39.70;;;;;;;;;;5036459;28;20114;-60
2022/08/19 03:53:04;;;;;;;43.22;41.00;;;;;;;;;;5033755;28;20048;-60
2022/08/19 03:55:30;;;;;;;45.03;42.63;;;;;;;;;;5033860;28;20033;-60
2022/08/19 03:57:56;;;;;;;48.58;46.08;;;;;;;;;;5036626;28;20101;-60
2022/08/19 04:00:21;;;;;;;55.65;52.58;;;;;;;;;;5036014;28;20129;-60
2022/08/19 04:02:46;;;;;;;54.72;51.88;;;;;;;;;;5033287;28;20119;-60
2022/08/19 04:05:13;;;;;;;52.72;50.03;;;;;;;;;;5036531;28;20041;-60
2022/08/19 04:07:39;;;;;;;50.47;47.85;;;;;;;;;;5035321;28;20088;-60
2022/08/19 04:10:04;;;;;;;48.03;45.53;;;;;;;;;;5037511;28;20053;-59
2022/08/19 04:12:30;;;;;;;47.65;45.17;;;;;;;;;;5036807;28;20094;-60
2022/08/19 04:14:55;;;;;;;48.53;45.95;;;;;;;;;;5037683;28;20059;-60
2022/08/19 04:17:22;;;;;;;43.22;40.95;;;;;;;;;;5040071;28;20032;-59
2022/08/19 04:19:47;;;;;;;47.30;44.88;;;;;;;;;;5040682;28;20033;-60
2022/08/19 04:22:12;;;;;;;41.03;38.85;;;;;;;;;;5037354;28;20095;-60
2022/08/19 04:24:38;;;;;;;43.55;41.08;;;;;;;;;;5040280;28;20033;-60
2022/08/19 04:27:05;;;;;;;39.58;37.50;;;;;;;;;;5039049;28;20046;-60
2022/08/19 04:29:31;;;;;;;38.22;36.22;;;;;;;;;;5037471;28;20087;-59
2022/08/19 04:31:58;;;;;;;40.33;38.20;;;;;;;;;;5039875;28;20037;-60
2022/08/19 04:34:25;;;;;;;38.45;36.17;;;;;;;;;;5039575;28;20105;-60
2022/08/19 04:36:53;;;;;;;40.28;38.13;;;;;;;;;;5043018;28;20041;-60
2022/08/19 04:42:38;;;;;;;40.42;38.28;;;;;;;;;;5038509;28;20091;-60
2022/08/19 04:44:55;;;;;;;36.60;34.60;;;;;;;;;;5038421;28;20021;-59
2022/08/19 04:47:20;;;;;;;37.72;35.67;;;;;;;;;;5037930;28;20108;-59
2022/08/19 04:49:46;;;;;;;41.45;39.22;;;;;;;;;;5039490;28;20572;-59
2022/08/19 04:52:11;;;;;;;44.78;42.20;;;;;;;;;;5037455;28;20488;-62
2022/08/19 04:54:37;;;;;;;44.20;41.85;;;;;;;;;;5037334;28;20041;-60
2022/08/19 04:57:03;;;;;;;39.75;37.70;;;;;;;;;;5036656;28;20110;-59
2022/08/19 04:59:28;;;;;;;50.28;47.63;;;;;;;;;;5035831;28;20037;-61
2022/08/19 05:01:54;;;;;;;44.20;41.55;;;;;;;;;;5037792;28;20029;-61
2022/08/19 05:04:20;;;;;;;42.30;40.10;;;;;;;;;;5037859;28;20048;-62
2022/08/19 05:06:47;;;;;;;45.60;43.28;;;;;;;;;;5039482;28;20132;-61
2022/08/19 05:09:14;;;;;;;45.67;43.28;;;;;;;;;;5038290;28;20025;-61
2022/08/19 05:11:39;;;;;;;43.60;41.33;;;;;;;;;;5035715;28;20033;-61
2022/08/19 05:14:05;;;;;;;43.67;41.33;;;;;;;;;;5035898;28;20040;-61
2022/08/19 05:16:31;;;;;;;44.30;42.00;;;;;;;;;;5033904;28;20029;-61
2022/08/19 05:24:27;;;;;;;39.85;37.70;;;;;;;;;;5036204;28;20108;-60
2022/08/19 05:26:56;;;;;;;47.47;45.00;;;;;;;;;;5040090;28;20051;-60
2022/08/19 05:29:23;;;;;;;48.47;45.85;;;;;;;;;;5032971;28;20026;-60
2022/08/19 05:31:49;;;;;;;51.45;48.80;;;;;;;;;;5035345;28;20052;-60
2022/08/19 05:34:17;;;;;;;55.30;52.38;;;;;;;;;;5034902;28;20021;-60
2022/08/19 05:36:44;;;;;;;52.97;50.30;;;;;;;;;;5035298;28;20033;-60
2022/08/19 05:39:16;;;;;;;61.60;58.25;;;;;;;;;;5034286;28;20431;-60
2022/08/19 05:41:46;;;;;;;66.38;62.85;;;;;;;;;;5034457;28;20673;-60
2022/08/19 05:44:12;;;;;;;59.95;56.72;;;;;;;;;;5035530;28;20729;-61
2022/08/19 05:46:38;;;;;;;60.08;56.85;;;;;;;;;;5033214;28;20048;-61
2022/08/19 05:49:08;;;;;;;53.95;51.20;;;;;;;;;;5038535;28;20037;-60
2022/08/19 05:51:35;;;;;;;57.90;54.90;;;;;;;;;;5037540;28;20778;-60
2022/08/19 05:54:02;;;;;;;59.95;56.90;;;;;;;;;;5035106;28;20550;-60
2022/08/19 05:56:30;;;;;;;58.47;55.50;;;;;;;;;;5039828;28;20056;-60
2022/08/19 05:58:55;;;;;;;68.05;64.53;;;;;;;;;;5035055;28;20022;-59
2022/08/19 06:01:21;;;;;;;62.28;58.85;;;;;;;;;;5037332;28;20028;-59
2022/08/19 06:03:47;;;;;;;66.20;62.65;;;;;;;;;;5036199;28;20041;-59
2022/08/19 06:06:14;;;;;;;63.72;60.47;;;;;;;;;;5041139;28;20055;-59
2022/08/19 06:08:42;;;;;;;65.63;62.28;;;;;;;;;;5036777;28;20510;-59
2022/08/19 06:11:33;;;;;;;63.92;60.58;;;;;;;;;;5037018;28;20043;-59
2022/08/19 06:14:03;;;;;;;66.85;63.45;;;;;;;;;;5029750;28;20052;-60
2022/08/19 06:16:31;;;;;;;61.57;58.40;;;;;;;;;;5036746;28;20468;-59
2022/08/19 06:19:00;;;;;;;63.22;59.90;;;;;;;;;;5037257;28;20086;-59
2022/08/19 06:21:27;;;;;;;65.55;62.28;;;;;;;;;;5039555;28;20123;-59
2022/08/19 06:23:54;;;;;;;63.45;60.28;;;;;;;;;;5039999;28;20087;-59
2022/08/19 06:26:20;;;;;;;63.55;60.30;;;;;;;;;;5038647;28;20514;-59
2022/08/19 06:28:47;;;;;;;82.45;78.22;;;;;;;;;;5037075;28;20087;-59
2022/08/19 06:31:25;;;;;;;42.25;40.00;;;;;;;;;;5034907;28;20033;-60
2022/08/19 06:33:51;;;;;;;43.60;41.15;;;;;;;;;;5040215;28;20037;-59
2022/08/19 06:36:17;;;;;;;28.92;27.23;;;;;;;;;;5033886;28;20378;-59
2022/08/19 06:38:43;;;;;;;25.92;24.50;;;;;;;;;;5036305;28;20136;-59
2022/08/19 06:41:09;;;;;;;30.27;28.67;;;;;;;;;;5045731;28;20021;-59
2022/08/19 06:43:35;;;;;;;28.05;26.55;;;;;;;;;;5038167;28;20086;-59
2022/08/19 06:46:03;;;;;;;28.95;27.42;;;;;;;;;;5035453;28;20033;-61
2022/08/19 06:48:28;;;;;;;25.60;24.20;;;;;;;;;;5037181;28;20029;-61
2022/08/19 06:50:54;;;;;;;25.27;23.88;;;;;;;;;;5037460;28;20029;-61
2022/08/19 06:53:19;;;;;;;28.75;26.92;;;;;;;;;;5036671;28;20079;-60
2022/08/19 06:55:45;;;;;;;30.08;28.48;;;;;;;;;;5038294;28;20029;-60
2022/08/19 06:58:10;;;;;;;63.70;60.42;;;;;;;;;;5038643;28;20041;-60
2022/08/19 07:00:36;;;;;;;24.10;22.77;;;;;;;;;;5038549;28;20033;-60
2022/08/19 07:03:02;;;;;;;22.52;21.23;;;;;;;;;;5037344;28;20055;-60
2022/08/19 07:05:28;;;;;;;24.42;23.02;;;;;;;;;;5034673;28;20125;-60
2022/08/19 07:07:53;;;;;;;21.15;19.95;;;;;;;;;;5038048;28;20033;-60
2022/08/19 07:10:19;;;;;;;23.42;22.13;;;;;;;;;;5036631;28;20033;-61
2022/08/19 07:12:44;;;;;;;16.20;15.20;;;;;;;;;;5035119;28;20025;-61
2022/08/19 07:15:10;;;;;;;21.02;19.85;;;;;;;;;;5036645;28;20026;-61
2022/08/19 07:17:38;;;;;;;20.98;19.77;;;;;;;;;;5035909;28;20451;-60
2022/08/19 07:20:07;;;;;;;14.27;13.38;;;;;;;;;;5034687;28;20036;-60
2022/08/19 07:22:33;;;;;;;19.42;18.30;;;;;;;;;;5034401;28;20029;-60
2022/08/19 07:24:59;;;;;;;16.45;15.45;;;;;;;;;;5033892;28;20064;-60
2022/08/19 07:27:25;;;;;;;17.92;16.92;;;;;;;;;;5034979;28;20643;-60
2022/08/19 07:29:51;;;;;;;14.27;13.38;;;;;;;;;;5034584;28;20029;-60
2022/08/19 07:32:17;;;;;;;13.77;12.88;;;;;;;;;;5038106;28;20087;-60
2022/08/19 07:34:42;;;;;;;16.30;15.35;;;;;;;;;;5051855;28;20608;-60
2022/08/19 07:37:07;;;;;;;15.15;14.25;;;;;;;;;;5034311;28;20044;-60
2022/08/19 07:39:35;;;;;;;16.13;15.02;;;;;;;;;;5035171;28;20036;-60
2022/08/19 07:42:06;;;;;;;13.18;12.38;;;;;;;;;;5035497;28;20355;-60
2022/08/19 07:44:31;;;;;;;;;;;;;;;;;;5039303;28;20336;-59
2022/08/19 07:46:57;;;;;;;15.50;14.60;;;;;;;;;;5040669;28;19928;-59
2022/08/19 07:49:23;;;;;;;13.48;12.68;;;;;;;;;;5041279;28;20029;-59
2022/08/19 07:51:52;;;;;;;16.73;15.65;;;;;;;;;;5036250;28;20021;-59
2022/08/19 07:54:19;;;;;;;12.57;11.77;;;;;;;;;;5041025;28;20128;-60
2022/08/19 07:56:45;;;;;;;15.15;14.25;;;;;;;;;;5038091;28;20398;-59
2022/08/19 07:59:11;;;;;;;15.80;14.90;;;;;;;;;;5037287;28;20041;-59
2022/08/19 08:01:39;;;;;;;17.00;16.05;;;;;;;;;;5039450;28;20048;-59
2022/08/19 08:09:38;;;;;;;18.52;17.48;;;;;;;;;;5040441;28;20028;-59
2022/08/19 08:12:10;;;;;;;18.00;17.00;;;;;;;;;;5041301;28;20037;-59
2022/08/19 08:14:39;;;;;;;12.07;11.38;;;;;;;;;;5036636;28;20116;-59
2022/08/19 08:17:06;;;;;;;21.02;19.77;;;;;;;;;;5041797;28;20029;-59
2022/08/19 08:19:32;;;;;;;9.55;8.95;;;;;;;;;;5041329;28;20068;-59
2022/08/19 08:21:59;;;;;;;9.57;8.98;;;;;;;;;;5038965;28;20136;-59
2022/08/19 08:24:27;;;;;;;9.95;9.35;;;;;;;;;;5037773;28;20022;-60
2022/08/19 08:26:53;;;;;;;11.23;10.52;;;;;;;;;;5039444;28;20120;-60
2022/08/19 08:29:19;;;;;;;10.65;9.95;;;;;;;;;;5042681;28;20129;-59
2022/08/19 08:31:45;;;;;;;7.88;7.38;;;;;;;;;;5040074;28;20135;-59
2022/08/19 08:34:11;;;;;;;10.55;9.85;;;;;;;;;;5040359;28;20030;-60
2022/08/19 08:36:44;;;;;;;9.07;8.48;;;;;;;;;;5039178;28;20802;-59
2022/08/19 08:39:12;;;;;;;9.02;8.43;;;;;;;;;;5039380;28;20037;-59
2022/08/19 08:42:05;;;;;;;12.82;12.02;;;;;;;;;;5041548;28;20067;-59
2022/08/19 08:44:36;;;;;;;13.25;12.45;;;;;;;;;;5039237;28;20033;-59
2022/08/19 08:47:06;;;;;;;13.90;13.10;;;;;;;;;;5037422;28;20041;-59
2022/08/19 08:49:46;;;;;;;9.77;9.18;;;;;;;;;;5040939;28;20045;-60
2022/08/19 08:52:29;;;;;;;15.65;14.68;;;;;;;;;;5039704;28;20026;-60
2022/08/19 08:54:58;;;;;;;12.70;11.90;;;;;;;;;;5040365;28;20029;-60
2022/08/19 08:57:32;;;;;;;11.02;10.32;;;;;;;;;;5040973;28;20154;-59
2022/08/19 09:00:02;;;;;;;14.98;14.10;;;;;;;;;;5040063;28;20033;-59
2022/08/19 09:02:27;;;;;;;14.57;13.70;;;;;;;;;;5037529;28;20124;-59
2022/08/19 09:04:54;;;;;;;21.65;20.35;;;;;;;;;;5039054;28;20183;-59
2022/08/19 09:07:38;;;;;;;10.07;9.38;;;;;;;;;;5037303;28;20029;-60
2022/08/19 09:10:17;;;;;;;11.10;10.40;;;;;;;;;;5053763;28;20036;-59
2022/08/19 09:13:12;;;;;;;12.77;11.98;;;;;;;;;;5036154;28;20179;-60
2022/08/19 09:15:56;;;;;;;12.20;11.50;;;;;;;;;;5037608;28;20028;-60
2022/08/19 09:18:21;;;;;;;13.80;13.00;;;;;;;;;;5038631;28;20055;-60
2022/08/19 09:20:47;;;;;;;12.45;11.65;;;;;;;;;;5037457;28;20378;-60
2022/08/19 09:23:13;;;;;;;12.73;11.93;;;;;;;;;;5037736;28;20014;-60
2022/08/19 09:25:39;;;;;;;12.93;12.13;;;;;;;;;;5035928;28;20051;-60
2022/08/19 09:28:06;;;;;;;12.93;12.13;;;;;;;;;;5038415;28;20052;-60
2022/08/19 09:30:34;;;;;;;16.30;15.40;;;;;;;;;;5041503;28;20043;-61
2022/08/19 09:33:00;;;;;;;23.08;21.77;;;;;;;;;;5040099;28;20033;-60
2022/08/19 09:35:28;;;;;;;11.10;10.40;;;;;;;;;;5036319;28;20044;-60
2022/08/19 09:37:55;;;;;;;38.28;36.28;;;;;;;;;;5037586;28;20036;-60
2022/08/19 09:40:20;;;;;;;41.05;38.95;;;;;;;;;;5039317;28;20466;-60
2022/08/19 09:42:47;;;;;;;25.05;23.70;;;;;;;;;;5037129;28;20113;-60
2022/08/19 09:45:14;;;;;;;22.90;21.70;;;;;;;;;;5038285;28;20127;-60
2022/08/19 09:47:39;;;;;;;13.20;12.43;;;;;;;;;;5042522;28;20052;-60
2022/08/19 09:50:06;;;;;;;13.88;13.07;;;;;;;;;;5039843;28;20366;-60
2022/08/19 09:52:33;;;;;;;16.98;15.98;;;;;;;;;;5039531;28;20041;-59
2022/08/19 09:54:59;;;;;;;26.38;24.98;;;;;;;;;;5039975;28;20029;-60
2022/08/19 09:57:24;;;;;;;14.85;14.00;;;;;;;;;;5035539;28;20025;-60
2022/08/19 09:59:49;;;;;;;11.88;11.18;;;;;;;;;;5034085;28;20030;-59
2022/08/19 10:02:15;;;;;;;20.75;19.55;;;;;;;;;;5040168;28;20033;-59
2022/08/19 10:07:24;;;;;;;15.07;14.23;;;;;;;;;;5035255;28;20431;-60
2022/08/19 10:09:49;;;;;;;31.75;30.05;;;;;;;;;;5034612;28;20067;-60
2022/08/19 10:12:15;;;;;;;20.02;18.73;;;;;;;;;;5034293;28;20094;-59
2022/08/19 10:14:41;;;;;;;13.95;13.15;;;;;;;;;;5034385;28;20032;-59
2022/08/19 10:17:06;;;;;;;16.80;15.80;;;;;;;;;;5037367;28;20413;-59
2022/08/19 10:19:35;;;;;;;24.23;22.60;;;;;;;;;;5034289;28;20044;-60
2022/08/19 10:22:04;;;;;;;32.57;30.87;;;;;;;;;;5034234;28;20613;-58
2022/08/19 10:24:30;;;;;;;31.90;30.17;;;;;;;;;;5038901;28;20090;-58
2022/08/19 10:26:56;;;;;;;34.05;32.25;;;;;;;;;;5035726;28;20068;-60
2022/08/19 10:29:22;;;;;;;34.45;32.60;;;;;;;;;;5036550;28;20303;-59
2022/08/19 10:31:48;;;;;;;20.63;19.50;;;;;;;;;;5035280;28;20033;-59
2022/08/19 10:34:13;;;;;;;37.45;35.53;;;;;;;;;;5036183;28;20502;-59
2022/08/19 10:36:38;;;;;;;22.23;20.98;;;;;;;;;;5036478;28;20036;-59
2022/08/19 10:39:07;;;;;;;55.28;52.42;;;;;;;;;;5035383;28;20405;-59
2022/08/19 10:41:36;;;;;;;59.58;56.28;;;;;;;;;;5039714;28;20060;-59
2022/08/19 10:44:05;;;;;;;65.78;62.47;;;;;;;;;;5038652;28;20083;-59
2022/08/19 10:46:32;;;;;;;27.85;26.38;;;;;;;;;;5036512;28;20120;-59
2022/08/19 10:48:58;;;;;;;56.28;53.38;;;;;;;;;;5036107;28;20040;-58
2022/08/19 10:54:09;;;;;;;55.92;53.13;;;;;;;;;;5033759;28;20072;-59
2022/08/19 10:56:50;;;;;;;62.40;59.30;;;;;;;;;;5037627;28;20369;-59
2022/08/19 10:59:21;;;;;;;59.25;56.25;;;;;;;;;;5033448;28;20443;-59
2022/08/19 11:01:47;;;;;;;63.72;60.53;;;;;;;;;;5038072;28;20037;-59
2022/08/19 11:04:15;;;;;;;56.35;53.50;;;;;;;;;;5037620;28;20040;-59
2022/08/19 11:06:41;;;;;;;48.53;45.92;;;;;;;;;;5036468;28;20048;-59
2022/08/19 11:09:07;;;;;;;50.72;48.17;;;;;;;;;;5039493;28;20025;-59
2022/08/19 11:11:39;;;;;;;53.85;51.13;;;;;;;;;;5036144;28;20429;-59
2022/08/19 11:14:05;;;;;;;67.13;63.78;;;;;;;;;;5035801;28;20466;-59
2022/08/19 11:16:31;;;;;;;47.03;44.63;;;;;;;;;;5035113;28;20051;-59
2022/08/19 11:18:59;;;;;;;57.40;54.50;;;;;;;;;;5033929;28;20060;-59
2022/08/19 11:21:32;;;;;;;56.10;53.25;;;;;;;;;;5034880;28;20147;-59
2022/08/19 11:24:01;;;;;;;79.78;75.78;;;;;;;;;;5037557;28;20110;-59
2022/08/19 11:26:28;;;;;;;108.32;102.90;;;;;;;;;;5038184;28;20033;-59
2022/08/19 11:28:56;;;;;;;100.28;95.20;;;;;;;;;;5037217;28;20037;-60
2022/08/19 11:31:26;;;;;;;108.07;102.72;;;;;;;;;;5035317;28;20021;-60
2022/08/19 11:33:53;;;;;;;109.75;104.20;;;;;;;;;;5036208;28;20044;-61
2022/08/19 11:36:20;;;;;;;145.90;138.60;;;;;;;;;;5034894;28;20763;-61
2022/08/19 11:38:48;;;;;;;118.70;112.78;;;;;;;;;;5036182;28;20040;-60
2022/08/19 11:41:14;;;;;;;116.43;110.72;;;;;;;;;;5034254;28;20036;-60
2022/08/19 11:43:40;;;;;;;93.80;89.15;;;;;;;;;;5038364;28;20033;-60
2022/08/19 11:46:11;;;;;;;129.02;122.55;;;;;;;;;;5036115;28;20104;-60
2022/08/19 11:48:37;;;;;;;166.50;158.27;;;;;;;;;;5037590;28;20339;-60
2022/08/19 11:51:09;;;;;;;150.23;142.80;;;;;;;;;;5035992;28;20037;-60
2022/08/19 11:53:35;;;;;;;180.05;171.18;;;;;;;;;;5035036;28;20539;-60
2022/08/19 11:56:01;;;;;;;174.60;166.02;;;;;;;;;;5037035;28;20052;-60
2022/08/19 11:58:26;;;;;;;174.18;165.57;;;;;;;;;;5036480;28;20029;-61
2022/08/19 12:00:52;;;;;;;174.35;165.65;;;;;;;;;;5037393;28;20460;-60
2022/08/19 12:03:19;;;;;;;157.85;150.02;;;;;;;;;;5037873;28;20067;-60
2022/08/19 12:05:45;;;;;;;166.93;158.70;;;;;;;;;;5036098;28;20193;-60
2022/08/19 12:08:12;;;;;;;171.77;163.27;;;;;;;;;;5032808;28;20107;-58
2022/08/19 12:10:38;;;;;;;132.82;126.22;;;;;;;;;;5038275;28;20040;-60
2022/08/19 12:13:04;;;;;;;151.77;144.25;;;;;;;;;;5029840;28;20061;-59
2022/08/19 12:15:30;;;;;;;181.80;172.85;;;;;;;;;;5036605;28;20529;-60
2022/08/19 12:17:56;;;;;;;174.50;165.93;;;;;;;;;;5036070;28;20052;-59
2022/08/19 12:20:23;;;;;;;130.73;124.25;;;;;;;;;;5034872;28;20108;-60
2022/08/19 12:22:50;;;;;;;125.35;119.15;;;;;;;;;;5040846;28;20024;-59
2022/08/19 12:25:16;;;;;;;151.40;143.93;;;;;;;;;;5036090;28;20033;-59
2022/08/19 12:27:42;;;;;;;109.82;104.38;;;;;;;;;;5034361;28;20115;-59
2022/08/19 12:30:10;;;;;;;131.18;124.70;;;;;;;;;;5036785;28;20053;-59
2022/08/19 12:32:36;;;;;;;94.00;89.38;;;;;;;;;;5038858;28;20371;-59
2022/08/19 12:35:01;;;;;;;133.93;127.30;;;;;;;;;;5041702;28;20029;-59
2022/08/19 12:37:26;;;;;;;99.78;94.85;;;;;;;;;;5037002;28;20044;-59
2022/08/19 12:39:52;;;;;;;88.13;83.75;;;;;;;;;;5041539;28;20032;-61
2022/08/19 12:42:18;;;;;;;74.63;70.93;;;;;;;;;;5040146;28;20025;-61
2022/08/19 12:44:45;;;;;;;78.60;74.28;;;;;;;;;;5040694;28;20370;-59
2022/08/19 12:47:13;;;;;;;75.22;71.45;;;;;;;;;;5042278;28;20033;-59
2022/08/19 12:49:39;;;;;;;67.18;63.78;;;;;;;;;;5038325;28;20352;-59
2022/08/19 12:52:05;;;;;;;68.57;64.93;;;;;;;;;;5039436;28;20040;-59
2022/08/19 12:54:31;;;;;;;96.47;91.75;;;;;;;;;;5041036;28;20525;-60
2022/08/19 12:56:57;;;;;;;95.90;91.15;;;;;;;;;;5039119;28;20425;-60
2022/08/19 12:59:23;;;;;;;79.60;75.63;;;;;;;;;;5038470;28;20430;-60
2022/08/19 13:01:48;;;;;;;73.90;70.20;;;;;;;;;;5036491;28;20030;-59
2022/08/19 13:04:14;;;;;;;62.05;58.95;;;;;;;;;;5038441;28;20676;-60
2022/08/19 13:06:39;;;;;;;81.65;77.63;;;;;;;;;;5035367;28;20048;-60
2022/08/19 13:09:05;;;;;;;64.53;61.28;;;;;;;;;;5035663;28;20025;-60
2022/08/19 13:11:34;;;;;;;70.18;66.68;;;;;;;;;;5039535;28;20072;-60
2022/08/19 13:14:01;;;;;;;65.03;61.80;;;;;;;;;;5038318;28;20029;-62
2022/08/19 13:16:27;;;;;;;66.82;63.50;;;;;;;;;;5035496;28;20036;-59
2022/08/19 13:18:54;;;;;;;66.20;62.90;;;;;;;;;;5039091;28;20517;-60
2022/08/19 13:21:23;;;;;;;66.85;63.45;;;;;;;;;;5038924;28;20533;-60
2022/08/19 13:23:49;;;;;;;65.97;62.67;;;;;;;;;;5039351;28;20041;-60
2022/08/19 13:26:16;;;;;;;62.67;59.53;;;;;;;;;;5038501;28;20087;-60
2022/08/19 13:34:14;;;;;;;70.07;66.60;;;;;;;;;;5035242;28;20074;-60
2022/08/19 13:36:39;;;;;;;69.88;66.35;;;;;;;;;;5036964;28;20044;-60
2022/08/19 13:39:07;;;;;;;61.40;58.30;;;;;;;;;;5037615;28;20370;-60
2022/08/19 13:41:34;;;;;;;61.58;58.47;;;;;;;;;;5036755;28;20655;-60
2022/08/19 13:43:59;;;;;;;60.65;57.65;;;;;;;;;;5039361;28;20037;-61
2022/08/19 13:46:24;;;;;;;75.07;71.35;;;;;;;;;;5037404;28;20029;-61
2022/08/19 13:48:50;;;;;;;76.70;72.75;;;;;;;;;;5036995;28;20534;-60
2022/08/19 13:51:16;;;;;;;65.13;61.85;;;;;;;;;;5037864;28;20033;-60
2022/08/19 13:53:43;;;;;;;66.07;62.78;;;;;;;;;;5038568;28;20044;-60
2022/08/19 13:56:11;;;;;;;78.68;74.78;;;;;;;;;;5035154;28;20128;-59
2022/08/19 13:58:38;;;;;;;63.22;59.85;;;;;;;;;;5040616;28;20033;-59
2022/08/19 14:01:04;;;;;;;64.80;61.58;;;;;;;;;;5037890;28;20352;-59
2022/08/19 14:03:31;;;;;;;69.40;65.97;;;;;;;;;;5035973;28;20111;-59
2022/08/19 14:05:56;;;;;;;61.30;58.20;;;;;;;;;;5042712;28;20033;-59
2022/08/19 14:08:22;;;;;;;65.53;62.22;;;;;;;;;;5040191;28;20052;-59
2022/08/19 14:10:48;;;;;;;62.08;58.97;;;;;;;;;;5039162;28;20454;-59
2022/08/19 14:13:19;;;;;;;73.68;70.03;;;;;;;;;;5038698;28;20025;-60
2022/08/19 14:15:47;;;;;;;102.70;97.68;;;;;;;;;;5040507;28;20029;-60
2022/08/19 14:18:13;;;;;;;95.72;91.03;;;;;;;;;;5035852;28;20144;-59
2022/08/19 14:20:38;;;;;;;111.18;105.72;;;;;;;;;;5039174;28;20025;-59
2022/08/19 14:23:05;;;;;;;84.72;80.53;;;;;;;;;;5040758;28;20398;-59
2022/08/19 14:25:31;;;;;;;97.28;92.50;;;;;;;;;;5039595;28;20033;-58
2022/08/19 14:27:57;;;;;;;111.43;105.95;;;;;;;;;;5037094;28;20787;-59
2022/08/19 14:30:28;;;;;;;79.97;76.00;;;;;;;;;;5040190;28;20063;-59
2022/08/19 14:32:54;;;;;;;122.22;116.20;;;;;;;;;;5038768;28;20048;-59
2022/08/19 14:35:21;;;;;;;125.90;119.68;;;;;;;;;;5039987;28;20094;-59
2022/08/19 14:37:47;;;;;;;115.70;110.00;;;;;;;;;;5038828;28;20342;-59
2022/08/19 14:40:15;;;;;;;129.55;123.15;;;;;;;;;;5037624;28;20040;-60
2022/08/19 14:42:41;;;;;;;152.20;144.73;;;;;;;;;;5038287;28;20515;-59